Sunny Clover — H3SY — position and weather

sailwx.info

Track history (hours):
 
Tides and Currents Weather Stations Pressure Air Temp Water Temp Dewpoint Dewpoint Depression Visibility Wind Speed Wind Dir Waves Ship Positions

Sunny Clover

Last reported at 2017-Apr-19 12:06 UTC. Time now 2017-Apr-30 03:26 UTC.
Position N 22°19' E 114°07'.
Warning: this ship's position is 10 days out of date.

Length 137 m; draft 7.2 m.

Type: Cargo ship. MMSI: 374431000.

Date/timePositionNaut miles runAvg speedWind from/ knotsBaromVisibWave heightAir tempDewpointWater temp
2017-Apr-19 12:06N 22°19' E 114°07'252 9.4
2017-Apr-18 09:14N 23°55' E 118°20'416.4
2017-Apr-18 08:59N 23°57' E 118°24'916.3
2017-Apr-18 08:25N 24°03' E 118°32'716.0
2017-Apr-18 07:58N 24°08' E 118°38'916.0
2017-Apr-18 07:23N 24°13' E 118°46'616.5
2017-Apr-18 07:00N 24°17' E 118°51'816.4
2017-Apr-18 06:30N 24°22' E 118°59'81315.9
2017-Apr-16 03:20N 34°45' E 128°60'716.0
2017-Apr-16 02:55N 34°52' E 129°02'  
2017-Apr-09 15:40N 23°39' E 117°59'  
Track history (hours):
 
Tides and Currents Weather Stations Pressure Air Temp Water Temp Dewpoint Dewpoint Depression Visibility Wind Speed Wind Dir Waves Ship Positions

Sunny Clover

Last reported at 2017-Apr-19 12:06 UTC. Time now 2017-Apr-30 03:26 UTC.
Position N 22°19' E 114°07'.
Warning: this ship's position is 10 days out of date.

Length 137 m; draft 7.2 m.

Type: Cargo ship. MMSI: 374431000.

Date/timePositionNaut miles runAvg speedWind from/ knotsBaromVisibWave heightAir tempDewpointWater temp
2017-Apr-19 12:06N 22°19' E 114°07'252 9.4
2017-Apr-18 09:14N 23°55' E 118°20'416.4
2017-Apr-18 08:59N 23°57' E 118°24'916.3
2017-Apr-18 08:25N 24°03' E 118°32'716.0
2017-Apr-18 07:58N 24°08' E 118°38'916.0
2017-Apr-18 07:23N 24°13' E 118°46'616.5
2017-Apr-18 07:00N 24°17' E 118°51'816.4
2017-Apr-18 06:30N 24°22' E 118°59'81315.9
2017-Apr-16 03:20N 34°45' E 128°60'716.0
2017-Apr-16 02:55N 34°52' E 129°02'  
2017-Apr-09 15:40N 23°39' E 117°59'  

Dump ship's entire track history